Time;durP1;ratioP1;P1;durP2;ratioP2;P2;SDS_P1;SDS_P2;PMS_P1;PMS_P2;Temp;Humidity;BMP_temperature;BMP_pressure;BME280_temperature;BME280_humidity;BME280_pressure;Samples;Min_cycle;Max_cycle;Signal;HPM_P1;HPM_P2
2021/07/25 00:01:38;;;;;;;1.80;1.70;;;12.30;91.20;;;;;;5073008;28;20040;-53
2021/07/25 00:04:05;;;;;;;1.63;1.42;;;12.10;91.40;;;;;;5072991;28;20162;-52
2021/07/25 00:06:33;;;;;;;1.40;1.30;;;12.30;91.30;;;;;;5072900;28;20488;-51
2021/07/25 00:09:00;;;;;;;1.30;1.20;;;12.40;91.60;;;;;;5072898;28;20126;-54
2021/07/25 00:11:28;;;;;;;1.48;1.40;;;12.30;90.90;;;;;;5072811;28;20291;-57
2021/07/25 00:13:58;;;;;;;1.55;1.45;;;12.40;90.90;;;;;;5072833;28;20370;-56
2021/07/25 00:16:25;;;;;;;1.63;1.52;;;12.40;90.10;;;;;;5072695;28;20457;-53
2021/07/25 00:18:52;;;;;;;1.77;1.67;;;12.30;90.40;;;;;;5072888;28;20488;-57
2021/07/25 00:21:19;;;;;;;1.13;1.10;;;12.20;90.90;;;;;;5072839;28;20099;-54
2021/07/25 00:23:48;;;;;;;1.60;1.50;;;12.30;90.80;;;;;;5072715;28;20059;-55
2021/07/25 00:26:18;;;;;;;1.40;1.40;;;12.50;90.90;;;;;;5072902;28;20029;-59
2021/07/25 00:28:48;;;;;;;2.88;1.50;;;12.80;91.50;;;;;;5073045;28;20036;-55
2021/07/25 00:31:15;;;;;;;1.40;1.30;;;13.00;90.10;;;;;;5072855;28;20017;-55
2021/07/25 00:33:43;;;;;;;1.50;1.40;;;13.00;90.10;;;;;;5072847;28;20074;-56
2021/07/25 00:36:11;;;;;;;1.30;1.30;;;13.00;90.10;;;;;;5072605;28;20074;-58
2021/07/25 00:38:38;;;;;;;1.63;1.52;;;13.10;90.10;;;;;;5072830;28;20053;-55
2021/07/25 00:41:14;;;;;;;1.85;1.75;;;13.10;89.80;;;;;;5072743;28;20496;-56
2021/07/25 00:43:44;;;;;;;1.55;1.45;;;13.20;89.00;;;;;;5072572;28;20055;-56
2021/07/25 00:46:13;;;;;;;1.70;1.40;;;12.90;87.00;;;;;;5072333;28;20032;-57
2021/07/25 00:48:41;;;;;;;1.70;1.60;;;12.80;85.70;;;;;;5072597;28;20035;-58
2021/07/25 00:51:08;;;;;;;1.40;1.30;;;12.90;84.80;;;;;;5072531;28;20366;-55
2021/07/25 00:53:39;;;;;;;1.48;1.40;;;13.00;86.50;;;;;;5072585;28;20027;-54
2021/07/25 00:56:08;;;;;;;1.30;1.30;;;13.20;86.50;;;;;;5072423;28;20037;-56
2021/07/25 00:58:41;;;;;;;1.80;1.70;;;13.20;85.60;;;;;;5072538;28;20028;-53
2021/07/25 01:01:09;;;;;;;1.90;1.30;;;13.40;84.90;;;;;;5072890;28;20078;-54
2021/07/25 01:03:55;;;;;;;1.40;1.30;;;13.20;85.40;;;;;;5072334;28;20025;-53
2021/07/25 01:06:37;;;;;;;1.30;1.20;;;13.30;84.50;;;;;;5072629;28;20029;-57
2021/07/25 01:09:11;;;;;;;1.88;1.50;;;13.10;83.40;;;;;;5072353;28;20370;-56
2021/07/25 01:11:50;;;;;;;2.15;1.20;;;13.10;82.30;;;;;;5072510;28;20016;-52
2021/07/25 01:14:31;;;;;;;1.73;1.40;;;13.20;80.50;;;;;;5072404;28;20020;-57
2021/07/25 01:17:33;;;;;;;1.50;1.40;;;12.90;81.00;;;;;;5071048;28;20115;-57
2021/07/25 01:20:01;;;;;;;2.13;1.50;;;13.10;81.50;;;;;;5072288;28;20071;-54
2021/07/25 01:22:31;;;;;;;1.88;1.77;;;13.20;81.50;;;;;;5072357;28;20507;-55
2021/07/25 01:24:59;;;;;;;5.20;1.52;;;13.30;80.40;;;;;;5072106;28;20385;-54
2021/07/25 01:27:53;;;;;;;1.20;1.20;;;13.30;80.40;;;;;;5072124;28;20427;-54
2021/07/25 01:30:23;;;;;;;1.50;1.30;;;13.40;79.90;;;;;;5072277;28;20049;-52
2021/07/25 01:32:57;;;;;;;1.10;1.10;;;13.40;79.60;;;;;;5073202;28;20070;-52
2021/07/25 01:35:25;;;;;;;1.00;1.00;;;13.40;78.80;;;;;;5075839;28;20089;-50
2021/07/25 01:37:54;;;;;;;1.10;1.10;;;13.50;79.00;;;;;;5075972;28;20017;-54
2021/07/25 01:40:24;;;;;;;1.40;1.30;;;13.60;78.40;;;;;;5075772;28;20020;-51
2021/07/25 01:42:56;;;;;;;1.38;1.27;;;13.70;77.80;;;;;;5075969;28;20326;-49
2021/07/25 01:45:23;;;;;;;1.30;1.20;;;13.80;78.00;;;;;;5075539;28;20053;-53
2021/07/25 01:47:51;;;;;;;1.65;1.55;;;13.70;78.00;;;;;;5075600;28;20025;-51
2021/07/25 01:50:18;;;;;;;1.20;1.20;;;13.60;78.50;;;;;;5075601;28;20028;-54
2021/07/25 01:52:46;;;;;;;1.52;1.42;;;13.70;77.60;;;;;;5075571;28;20478;-54
2021/07/25 01:55:13;;;;;;;1.23;1.20;;;13.70;79.10;;;;;;5075541;28;20074;-54
2021/07/25 01:57:41;;;;;;;1.40;1.30;;;13.70;77.90;;;;;;5075185;28;20059;-50
2021/07/25 02:00:09;;;;;;;1.60;1.40;;;13.70;77.80;;;;;;5075415;28;20473;-54
2021/07/25 02:02:37;;;;;;;1.38;1.23;;;13.70;79.20;;;;;;5075308;28;20153;-54
2021/07/25 02:05:05;;;;;;;1.50;1.40;;;13.60;78.50;;;;;;5075194;28;20028;-54
2021/07/25 02:07:33;;;;;;;1.55;1.40;;;13.60;78.20;;;;;;5075000;28;20020;-52
2021/07/25 02:10:00;;;;;;;1.95;1.50;;;13.50;77.70;;;;;;5075197;28;20035;-52
2021/07/25 02:12:28;;;;;;;1.80;1.67;;;13.50;79.20;;;;;;5075107;28;20150;-60
2021/07/25 02:14:55;;;;;;;2.00;1.90;;;13.40;79.40;;;;;;5075037;28;20028;-57
2021/07/25 02:17:22;;;;;;;1.70;1.60;;;13.60;79.00;;;;;;5075026;28;20103;-54
2021/07/25 02:19:50;;;;;;;1.70;1.60;;;13.80;79.30;;;;;;5074825;28;20484;-56
2021/07/25 02:22:17;;;;;;;2.00;1.80;;;13.80;78.60;;;;;;5075127;28;20153;-56
2021/07/25 02:24:44;;;;;;;1.40;1.35;;;14.00;78.00;;;;;;5074941;28;20127;-56
2021/07/25 02:27:12;;;;;;;1.50;1.40;;;14.40;79.60;;;;;;5074833;28;20027;-56
2021/07/25 02:29:39;;;;;;;1.60;1.50;;;14.40;79.50;;;;;;5074848;28;20100;-55
2021/07/25 02:32:07;;;;;;;1.73;1.50;;;14.40;78.20;;;;;;5074769;28;20020;-56
2021/07/25 02:34:35;;;;;;;1.95;1.85;;;14.80;77.60;;;;;;5074798;28;20013;-54
2021/07/25 02:37:04;;;;;;;1.60;1.50;;;15.10;75.80;;;;;;5074791;28;20031;-51
2021/07/25 02:39:31;;;;;;;1.60;1.50;;;14.50;74.70;;;;;;5074680;28;20060;-54
2021/07/25 02:41:58;;;;;;;1.95;1.60;;;14.50;76.20;;;;;;5074618;28;20488;-55
2021/07/25 02:44:26;;;;;;;1.25;1.23;;;14.80;75.50;;;;;;5073530;28;20029;-54
2021/07/25 02:46:53;;;;;;;1.75;1.70;;;14.80;75.20;;;;;;5074621;28;20025;-54
2021/07/25 02:49:20;;;;;;;1.48;1.38;;;14.90;75.70;;;;;;5074514;28;20024;-54
2021/07/25 02:51:50;;;;;;;1.55;1.48;;;14.80;74.50;;;;;;5074503;28;20027;-51
2021/07/25 02:54:18;;;;;;;1.30;1.20;;;14.80;74.80;;;;;;5074384;28;20017;-55
2021/07/25 02:56:45;;;;;;;2.42;1.40;;;14.70;73.80;;;;;;5074091;28;20037;-58
2021/07/25 02:59:12;;;;;;;3.25;1.58;;;14.70;75.00;;;;;;5074415;28;20025;-57
2021/07/25 03:01:40;;;;;;;1.50;1.40;;;14.80;74.30;;;;;;5074404;28;20028;-56
2021/07/25 03:04:07;;;;;;;2.40;1.40;;;14.90;74.10;;;;;;5074120;28;20028;-57
2021/07/25 03:06:34;;;;;;;1.73;1.63;;;14.70;73.80;;;;;;5074335;28;20024;-53
2021/07/25 03:09:04;;;;;;;1.77;1.67;;;14.50;73.20;;;;;;5074019;28;20046;-55
2021/07/25 03:11:32;;;;;;;1.42;1.33;;;14.50;72.80;;;;;;5074100;28;20017;-57
2021/07/25 03:13:59;;;;;;;1.30;1.30;;;14.50;73.80;;;;;;5073993;28;20070;-56
2021/07/25 03:16:27;;;;;;;1.95;1.85;;;14.50;73.10;;;;;;5073949;28;20021;-56
2021/07/25 03:18:54;;;;;;;2.10;2.00;;;14.90;73.10;;;;;;5073933;28;20070;-54
2021/07/25 03:21:21;;;;;;;1.85;1.60;;;14.70;72.40;;;;;;5073878;28;20028;-58
2021/07/25 03:23:49;;;;;;;1.90;1.80;;;15.00;72.10;;;;;;5073703;28;20020;-56
2021/07/25 03:26:16;;;;;;;2.00;1.75;;;15.10;72.60;;;;;;5073836;28;20062;-54
2021/07/25 03:28:43;;;;;;;1.90;1.80;;;15.50;71.40;;;;;;5073789;28;20499;-55
2021/07/25 03:31:11;;;;;;;1.52;1.42;;;15.30;71.30;;;;;;5073794;28;20032;-56
2021/07/25 03:33:38;;;;;;;1.85;1.73;;;15.10;71.60;;;;;;5073748;28;20050;-58
2021/07/25 03:36:05;;;;;;;2.05;2.03;;;15.20;71.40;;;;;;5073324;28;20021;-57
2021/07/25 03:38:33;;;;;;;1.95;1.80;;;14.90;71.20;;;;;;5073638;28;20028;-56
2021/07/25 03:41:03;;;;;;;1.60;1.50;;;15.10;70.90;;;;;;5073514;28;20032;-57
2021/07/25 03:43:32;;;;;;;1.38;1.33;;;15.00;71.50;;;;;;5073602;28;20051;-56
2021/07/25 03:46:00;;;;;;;1.40;1.40;;;14.90;71.40;;;;;;5073047;28;20044;-54
2021/07/25 03:48:28;;;;;;;1.60;1.50;;;15.00;71.20;;;;;;5073349;28;20029;-57
2021/07/25 03:50:56;;;;;;;1.90;1.80;;;15.00;70.50;;;;;;5073254;28;20055;-57
2021/07/25 03:53:23;;;;;;;1.80;1.70;;;15.00;71.40;;;;;;5073171;28;20031;-56
2021/07/25 03:55:51;;;;;;;2.20;2.10;;;15.20;70.70;;;;;;5072688;28;20408;-56
2021/07/25 03:58:18;;;;;;;1.90;1.80;;;15.30;70.80;;;;;;5073149;28;20108;-54
2021/07/25 04:00:46;;;;;;;1.40;1.30;;;15.30;69.90;;;;;;5073050;28;20116;-51
2021/07/25 04:03:13;;;;;;;1.52;1.50;;;15.10;71.40;;;;;;5072738;28;20029;-55
2021/07/25 04:05:40;;;;;;;1.75;1.45;;;14.50;70.80;;;;;;5072990;28;20143;-55
2021/07/25 04:08:10;;;;;;;1.90;1.80;;;14.40;71.10;;;;;;5073164;28;20065;-55
2021/07/25 04:10:45;;;;;;;2.10;2.00;;;14.40;71.00;;;;;;5072830;28;20020;-57
2021/07/25 04:13:13;;;;;;;1.70;1.60;;;14.40;71.20;;;;;;5072963;28;20325;-54
2021/07/25 04:15:42;;;;;;;1.60;1.50;;;14.60;69.90;;;;;;5072874;28;20048;-55
2021/07/25 04:18:10;;;;;;;1.38;1.38;;;14.50;71.20;;;;;;5072740;28;20035;-50
2021/07/25 04:20:37;;;;;;;1.60;1.50;;;14.60;70.70;;;;;;5072873;28;20048;-52
2021/07/25 04:23:04;;;;;;;1.80;1.70;;;14.80;69.80;;;;;;5072784;28;20020;-56
2021/07/25 04:25:33;;;;;;;1.77;1.70;;;14.80;70.20;;;;;;5072654;28;20379;-51
2021/07/25 04:28:02;;;;;;;1.80;1.70;;;14.90;70.50;;;;;;5072612;28;20036;-54
2021/07/25 04:30:30;;;;;;;1.88;1.80;;;14.70;70.60;;;;;;5072617;28;20056;-55
2021/07/25 04:32:58;;;;;;;1.70;1.70;;;14.60;71.50;;;;;;5072572;28;20031;-53
2021/07/25 04:35:26;;;;;;;2.85;2.65;;;14.70;71.60;;;;;;5072691;28;20048;-54
2021/07/25 04:37:54;;;;;;;1.77;1.67;;;14.50;72.60;;;;;;5072590;28;20111;-53
2021/07/25 04:40:26;;;;;;;1.95;1.80;;;14.40;72.80;;;;;;5072619;28;20032;-53
2021/07/25 04:42:56;;;;;;;2.03;1.92;;;14.80;73.00;;;;;;5072701;28;20020;-57
2021/07/25 04:45:33;;;;;;;1.77;1.70;;;15.00;71.10;;;;;;5071057;28;20028;-56
2021/07/25 04:48:35;;;;;;;1.70;1.60;;;15.00;71.20;;;;;;5072545;28;20028;-53
2021/07/25 04:51:10;;;;;;;1.70;1.60;;;14.90;71.40;;;;;;5072525;28;20035;-52
2021/07/25 04:53:42;;;;;;;1.83;1.30;;;15.00;71.90;;;;;;5072490;28;20066;-55
2021/07/25 04:56:11;;;;;;;1.70;1.60;;;15.00;71.70;;;;;;5072245;28;20124;-54
2021/07/25 04:58:47;;;;;;;1.73;1.42;;;14.60;72.30;;;;;;5072437;28;20027;-54
2021/07/25 05:01:24;;;;;;;1.60;1.58;;;14.50;72.00;;;;;;5072411;28;20150;-53
2021/07/25 05:03:52;;;;;;;1.90;1.90;;;14.50;73.00;;;;;;5072272;28;20503;-54
2021/07/25 05:06:22;;;;;;;2.28;2.17;;;14.60;72.10;;;;;;5072259;28;20043;-56
2021/07/25 05:08:49;;;;;;;2.03;1.83;;;14.50;73.10;;;;;;5075341;28;20021;-58
2021/07/25 05:11:20;;;;;;;1.67;1.67;;;14.30;72.40;;;;;;5076388;28;20025;-55
2021/07/25 05:13:49;;;;;;;1.60;1.50;;;14.30;72.70;;;;;;5076351;28;20021;-54
2021/07/25 05:16:40;;;;;;;2.85;2.65;;;14.10;71.40;;;;;;5076192;28;20027;-55
2021/07/25 05:19:33;;;;;;;2.20;2.10;;;14.10;74.30;;;;;;5076203;28;20024;-55
2021/07/25 05:22:24;;;;;;;2.20;2.10;;;14.10;73.40;;;;;;5075988;28;20025;-53
2021/07/25 05:24:52;;;;;;;;;;;14.10;72.30;;;;;;5076315;28;20024;-54
2021/07/25 05:27:24;;;;;;;1.90;1.80;;;14.20;72.10;;;;;;5075917;28;19905;-58
2021/07/25 05:29:52;;;;;;;1.70;1.70;;;14.10;73.20;;;;;;5075901;28;20031;-55
2021/07/25 05:32:20;;;;;;;2.03;1.92;;;14.10;73.20;;;;;;5075870;28;20066;-56
2021/07/25 05:34:47;;;;;;;1.63;1.63;;;13.90;73.70;;;;;;5075941;28;20028;-53
2021/07/25 05:37:15;;;;;;;1.65;1.55;;;14.00;74.10;;;;;;5075914;28;20052;-58
2021/07/25 05:39:42;;;;;;;1.60;1.50;;;13.90;74.00;;;;;;5075925;28;20025;-56
2021/07/25 05:42:09;;;;;;;1.77;1.65;;;13.80;74.70;;;;;;5075640;28;20381;-56
2021/07/25 05:44:37;;;;;;;1.80;1.70;;;13.90;75.10;;;;;;5075519;28;20073;-58
2021/07/25 05:47:04;;;;;;;1.58;1.50;;;13.90;74.80;;;;;;5075658;28;20035;-56
2021/07/25 05:49:31;;;;;;;1.70;1.60;;;13.90;75.80;;;;;;5075538;28;20074;-52
2021/07/25 05:51:59;;;;;;;1.80;1.70;;;13.80;76.20;;;;;;5075579;28;20408;-53
2021/07/25 05:54:26;;;;;;;1.40;1.40;;;13.80;75.70;;;;;;5075478;28;20092;-55
2021/07/25 05:56:53;;;;;;;1.90;1.42;;;13.70;74.80;;;;;;5075202;28;20128;-57
2021/07/25 05:59:21;;;;;;;2.20;1.75;;;13.70;74.80;;;;;;5075290;28;20017;-56
2021/07/25 06:01:48;;;;;;;1.70;1.60;;;13.80;74.80;;;;;;5075306;28;20024;-57
2021/07/25 06:04:15;;;;;;;1.70;1.60;;;13.70;74.10;;;;;;5075239;28;20481;-53
2021/07/25 06:06:43;;;;;;;1.80;1.70;;;13.70;74.40;;;;;;5075169;28;20469;-57
2021/07/25 06:09:10;;;;;;;2.15;1.70;;;13.60;74.90;;;;;;5075006;28;20027;-56
2021/07/25 06:11:38;;;;;;;4.85;2.40;;;13.50;74.90;;;;;;5075030;28;20024;-57
2021/07/25 06:14:06;;;;;;;3.83;2.10;;;13.40;76.20;;;;;;5075129;28;20025;-56
2021/07/25 06:16:33;;;;;;;1.80;1.70;;;13.30;75.50;;;;;;5074990;28;20480;-56
2021/07/25 06:19:01;;;;;;;2.25;1.80;;;13.20;74.50;;;;;;5074663;28;20020;-54
2021/07/25 06:21:28;;;;;;;1.90;1.80;;;13.10;74.80;;;;;;5075042;28;20077;-56
2021/07/25 06:23:55;;;;;;;1.80;1.70;;;13.10;75.10;;;;;;5074771;28;20032;-56
2021/07/25 06:26:24;;;;;;;1.73;1.70;;;13.10;75.20;;;;;;5074696;28;20016;-54
2021/07/25 06:28:51;;;;;;;3.17;1.80;;;13.10;76.00;;;;;;5074898;28;20415;-56
2021/07/25 06:31:19;;;;;;;1.80;1.70;;;13.00;75.30;;;;;;5074941;28;20020;-54
2021/07/25 06:33:49;;;;;;;2.00;1.90;;;13.00;75.40;;;;;;5074784;28;20025;-52
2021/07/25 06:36:17;;;;;;;2.20;2.10;;;13.00;75.80;;;;;;5074691;28;20021;-53
2021/07/25 06:38:45;;;;;;;1.90;1.80;;;12.90;76.30;;;;;;5074678;28;20074;-59
2021/07/25 06:41:12;;;;;;;1.90;1.80;;;12.80;75.80;;;;;;5074779;28;20520;-60
2021/07/25 06:43:39;;;;;;;2.72;2.10;;;12.80;75.30;;;;;;5074579;28;20067;-60
2021/07/25 06:46:09;;;;;;;1.95;1.85;;;12.70;76.10;;;;;;5074317;28;20050;-60
2021/07/25 06:48:37;;;;;;;2.73;1.90;;;12.60;76.20;;;;;;5074626;28;20115;-60
2021/07/25 06:51:04;;;;;;;2.55;2.25;;;12.50;77.00;;;;;;5074432;28;20289;-60
2021/07/25 06:53:33;;;;;;;2.35;2.15;;;12.40;77.30;;;;;;5074127;28;20536;-60
2021/07/25 06:56:04;;;;;;;2.45;2.25;;;12.40;77.00;;;;;;5074124;28;20044;-62
2021/07/25 06:58:33;;;;;;;2.92;2.50;;;12.30;77.30;;;;;;5074168;28;20079;-62
2021/07/25 07:01:00;;;;;;;2.50;2.30;;;12.30;77.70;;;;;;5074172;28;20045;-61
2021/07/25 07:03:28;;;;;;;2.78;2.50;;;12.20;78.10;;;;;;5074281;28;20058;-61
2021/07/25 07:05:55;;;;;;;2.70;2.53;;;12.10;78.30;;;;;;5074223;28;20499;-60
2021/07/25 07:08:23;;;;;;;2.90;2.70;;;12.10;78.60;;;;;;5074170;28;20020;-59
2021/07/25 07:10:50;;;;;;;2.40;2.30;;;12.10;78.40;;;;;;5074038;28;20028;-59
2021/07/25 07:13:19;;;;;;;2.58;2.33;;;12.00;79.30;;;;;;5074084;28;20492;-60
2021/07/25 07:15:49;;;;;;;3.20;2.10;;;12.00;79.50;;;;;;5073962;28;20033;-60
2021/07/25 07:18:17;;;;;;;3.30;2.63;;;11.90;80.20;;;;;;5072615;28;20037;-60
2021/07/25 07:20:45;;;;;;;3.15;2.70;;;11.80;80.70;;;;;;5073820;28;20397;-60
2021/07/25 07:23:16;;;;;;;2.60;2.40;;;11.80;81.30;;;;;;5073845;28;20389;-60
2021/07/25 07:25:45;;;;;;;2.90;2.53;;;11.60;82.30;;;;;;5074127;28;20113;-60
2021/07/25 07:28:14;;;;;;;2.70;2.50;;;11.40;83.90;;;;;;5073594;28;20078;-61
2021/07/25 07:30:42;;;;;;;3.10;2.40;;;11.20;84.50;;;;;;5073017;28;20038;-60
2021/07/25 07:33:12;;;;;;;3.15;2.63;;;11.30;82.80;;;;;;5073620;28;20024;-61
2021/07/25 07:35:40;;;;;;;2.20;2.10;;;11.30;82.70;;;;;;5073697;28;20028;-60
2021/07/25 07:38:08;;;;;;;2.70;2.50;;;11.40;82.20;;;;;;5073310;28;20017;-59
2021/07/25 07:40:37;;;;;;;2.53;2.30;;;11.50;82.80;;;;;;5073378;28;20059;-60
2021/07/25 07:43:05;;;;;;;2.47;2.15;;;11.50;82.40;;;;;;5073410;28;20044;-59
2021/07/25 07:45:34;;;;;;;2.35;2.15;;;11.40;82.80;;;;;;5071967;28;20126;-60
2021/07/25 07:48:01;;;;;;;2.38;2.17;;;11.40;82.90;;;;;;5073303;28;20021;-60
2021/07/25 07:50:28;;;;;;;2.90;2.30;;;11.30;83.60;;;;;;5073301;28;20021;-60
2021/07/25 07:52:57;;;;;;;3.33;2.30;;;11.30;83.50;;;;;;5073151;28;20016;-61
2021/07/25 07:55:25;;;;;;;2.63;2.05;;;11.20;83.90;;;;;;5072928;28;20033;-61
2021/07/25 07:57:53;;;;;;;2.22;2.10;;;11.10;84.70;;;;;;5073120;28;20032;-60
2021/07/25 08:00:20;;;;;;;2.72;2.10;;;11.10;85.40;;;;;;5073346;28;20476;-59
2021/07/25 08:02:48;;;;;;;4.60;2.55;;;11.00;86.30;;;;;;5073145;28;20032;-61
2021/07/25 08:05:18;;;;;;;2.60;2.40;;;10.90;89.00;;;;;;5073023;28;20051;-61
2021/07/25 08:07:45;;;;;;;2.50;2.37;;;10.70;88.00;;;;;;5073340;28;20024;-61
2021/07/25 08:10:13;;;;;;;3.00;2.78;;;10.60;88.80;;;;;;5073022;28;20020;-61
2021/07/25 08:12:41;;;;;;;3.60;2.53;;;10.60;87.80;;;;;;5072795;28;20024;-60
2021/07/25 08:15:10;;;;;;;2.83;2.15;;;10.60;87.80;;;;;;5072938;28;20393;-61
2021/07/25 08:17:37;;;;;;;3.83;3.25;;;10.60;88.70;;;;;;5072895;28;20021;-59
2021/07/25 08:20:05;;;;;;;2.90;2.70;;;10.50;89.80;;;;;;5072798;28;20170;-60
2021/07/25 08:22:32;;;;;;;2.65;2.45;;;10.40;88.90;;;;;;5072827;28;20071;-60
2021/07/25 08:25:00;;;;;;;3.03;2.70;;;10.40;90.30;;;;;;5072750;28;20153;-59
2021/07/25 08:27:27;;;;;;;2.97;2.70;;;10.40;89.50;;;;;;5072893;28;20424;-59
2021/07/25 08:29:54;;;;;;;2.70;2.50;;;10.40;89.00;;;;;;5072809;28;20025;-59
2021/07/25 08:32:22;;;;;;;4.47;3.05;;;10.40;90.20;;;;;;5072795;28;20107;-59
2021/07/25 08:34:49;;;;;;;3.08;2.88;;;10.30;90.30;;;;;;5072783;28;20028;-59
2021/07/25 08:37:17;;;;;;;3.33;3.05;;;10.30;90.10;;;;;;5072728;28;20069;-58
2021/07/25 08:39:44;;;;;;;4.03;2.70;;;10.30;90.20;;;;;;5072768;28;20017;-60
2021/07/25 08:42:17;;;;;;;2.60;2.50;;;10.30;90.00;;;;;;5071663;28;20021;-58
2021/07/25 08:44:54;;;;;;;3.22;2.40;;;10.30;89.90;;;;;;5071292;28;20070;-59
2021/07/25 08:47:29;;;;;;;2.78;2.58;;;10.30;90.00;;;;;;5071491;28;20012;-59
2021/07/25 08:49:58;;;;;;;2.97;2.63;;;10.20;90.20;;;;;;5072752;28;20455;-58
2021/07/25 08:52:27;;;;;;;3.95;2.85;;;10.20;90.70;;;;;;5072522;28;20522;-59
2021/07/25 08:54:56;;;;;;;3.50;2.72;;;10.20;90.60;;;;;;5072553;28;20025;-58
2021/07/25 08:57:30;;;;;;;4.13;2.92;;;10.10;90.60;;;;;;5072426;28;20447;-59
2021/07/25 08:59:59;;;;;;;2.83;2.50;;;10.10;90.50;;;;;;5072601;28;20028;-59
2021/07/25 09:02:31;;;;;;;3.70;2.70;;;10.10;90.80;;;;;;5071240;28;20021;-59
2021/07/25 09:04:59;;;;;;;2.75;2.55;;;10.10;90.80;;;;;;5072294;28;20021;-59
2021/07/25 09:07:29;;;;;;;3.08;2.60;;;10.10;90.70;;;;;;5072760;28;20016;-58
2021/07/25 09:10:00;;;;;;;3.20;2.90;;;10.10;90.50;;;;;;5072966;28;20036;-59
2021/07/25 09:12:30;;;;;;;2.50;2.30;;;10.00;90.50;;;;;;5072665;28;20045;-58
2021/07/25 09:15:04;;;;;;;4.78;2.50;;;10.00;90.60;;;;;;5071156;28;20066;-58
2021/07/25 09:17:32;;;;;;;3.33;3.00;;;10.00;90.70;;;;;;5072391;28;20405;-58
2021/07/25 09:20:35;;;;;;;3.08;2.75;;;9.80;91.10;;;;;;5072241;28;20095;-59
2021/07/25 09:23:12;;;;;;;2.80;2.60;;;9.70;91.40;;;;;;5030272;28;20486;-58
2021/07/25 09:25:44;;;;;;;3.38;2.72;;;9.60;91.50;;;;;;5063836;28;20043;-57
2021/07/25 09:28:17;;;;;;;3.22;2.92;;;9.50;92.30;;;;;;5072179;28;20020;-59
2021/07/25 09:30:45;;;;;;;4.20;2.60;;;9.60;91.40;;;;;;5072403;28;20082;-58
2021/07/25 09:33:29;;;;;;;4.88;2.65;;;9.60;91.90;;;;;;5072340;28;20489;-57
2021/07/25 09:36:12;;;;;;;3.58;2.50;;;9.60;91.50;;;;;;5072182;28;20028;-59
2021/07/25 09:38:40;;;;;;;5.50;2.65;;;9.60;91.50;;;;;;5072243;28;20051;-59
2021/07/25 09:41:22;;;;;;;2.65;2.45;;;9.60;91.70;;;;;;5072157;28;20036;-59
2021/07/25 09:44:01;;;;;;;2.70;2.50;;;9.60;91.70;;;;;;5072073;28;20154;-59
2021/07/25 09:46:40;;;;;;;4.15;2.55;;;9.60;91.90;;;;;;5071924;28;20423;-61
2021/07/25 09:49:07;;;;;;;3.25;2.60;;;9.60;91.70;;;;;;5072035;28;20489;-62
2021/07/25 09:51:35;;;;;;;2.70;2.50;;;9.60;91.80;;;;;;5071905;28;20017;-61
2021/07/25 09:54:05;;;;;;;4.43;2.97;;;9.70;91.90;;;;;;5073437;28;20040;-60
2021/07/25 09:56:32;;;;;;;3.75;2.92;;;9.60;92.00;;;;;;5075246;28;20190;-59
2021/07/25 09:58:59;;;;;;;3.55;2.58;;;9.60;92.00;;;;;;5075419;28;20458;-60
2021/07/25 10:01:44;;;;;;;3.30;2.95;;;9.50;92.40;;;;;;5075372;28;20021;-59
2021/07/25 10:04:21;;;;;;;4.40;2.88;;;9.50;93.10;;;;;;5075211;28;20033;-60
2021/07/25 10:06:54;;;;;;;3.78;2.65;;;9.30;93.30;;;;;;5075317;28;20035;-59
2021/07/25 10:09:23;;;;;;;4.35;2.92;;;9.20;93.90;;;;;;5075259;28;20023;-58
2021/07/25 10:12:03;;;;;;;3.78;2.80;;;9.10;93.90;;;;;;5075355;28;20036;-60
2021/07/25 10:14:33;;;;;;;5.57;3.33;;;9.00;93.90;;;;;;5075366;28;20027;-60
2021/07/25 10:17:02;;;;;;;4.03;3.17;;;9.00;94.90;;;;;;5075089;28;20119;-61
2021/07/25 10:19:42;;;;;;;3.92;2.90;;;9.00;94.00;;;;;;5075090;28;20071;-60
2021/07/25 10:22:11;;;;;;;5.37;2.80;;;9.00;93.80;;;;;;5075144;28;20048;-60
2021/07/25 10:24:45;;;;;;;2.85;2.60;;;9.00;94.10;;;;;;5075192;28;20103;-61
2021/07/25 10:27:17;;;;;;;3.78;2.78;;;8.90;94.80;;;;;;5075050;28;20030;-60
2021/07/25 10:29:45;;;;;;;4.47;2.65;;;8.90;95.10;;;;;;5075009;28;20021;-58
2021/07/25 10:32:13;;;;;;;3.88;2.80;;;8.90;94.80;;;;;;5075067;28;20107;-60
2021/07/25 10:34:41;;;;;;;3.95;2.50;;;8.90;94.60;;;;;;5074857;28;20054;-59
2021/07/25 10:37:12;;;;;;;3.95;2.70;;;8.80;95.30;;;;;;5074709;28;20048;-60
2021/07/25 10:39:51;;;;;;;5.40;3.05;;;8.80;95.80;;;;;;5074751;28;20032;-59
2021/07/25 10:42:24;;;;;;;5.35;2.78;;;8.90;95.30;;;;;;5074735;28;20021;-59
2021/07/25 10:44:52;;;;;;;3.15;2.65;;;8.90;95.50;;;;;;5074580;28;20024;-59
2021/07/25 10:47:26;;;;;;;2.90;2.60;;;8.90;94.40;;;;;;5074641;28;20409;-58
2021/07/25 10:50:04;;;;;;;3.33;2.60;;;9.00;94.20;;;;;;5073132;28;20096;-58
2021/07/25 10:52:52;;;;;;;6.72;2.67;;;9.00;94.60;;;;;;5074493;28;20017;-59
2021/07/25 10:55:38;;;;;;;5.25;2.50;;;9.00;95.40;;;;;;5074283;28;20484;-62
2021/07/25 10:58:07;;;;;;;5.40;2.53;;;8.90;94.90;;;;;;5074382;28;20452;-59
2021/07/25 11:00:43;;;;;;;3.97;2.63;;;8.80;95.30;;;;;;5074271;28;20053;-59
2021/07/25 11:03:30;;;;;;;3.97;2.88;;;8.70;95.10;;;;;;5074120;28;20067;-59
2021/07/25 11:06:07;;;;;;;5.72;3.53;;;8.70;94.70;;;;;;5073121;28;20059;-59
2021/07/25 11:08:36;;;;;;;3.25;2.97;;;8.70;95.00;;;;;;5074080;28;20025;-59
2021/07/25 11:11:34;;;;;;;4.50;2.90;;;8.60;95.10;;;;;;5074103;28;20392;-61
2021/07/25 11:14:02;;;;;;;3.00;2.72;;;8.60;95.10;;;;;;5073886;28;20029;-58
2021/07/25 11:16:34;;;;;;;5.20;3.42;;;8.70;95.10;;;;;;5074007;28;20039;-62
2021/07/25 11:19:24;;;;;;;3.10;2.70;;;8.70;95.30;;;;;;5074005;28;20464;-60
2021/07/25 11:21:53;;;;;;;3.10;2.67;;;8.70;95.20;;;;;;5064878;28;20067;-58
2021/07/25 11:24:23;;;;;;;2.92;2.53;;;8.70;95.30;;;;;;5073732;28;20036;-59
2021/07/25 11:26:54;;;;;;;4.17;3.20;;;8.90;94.90;;;;;;5073875;28;20115;-59
2021/07/25 11:29:33;;;;;;;3.88;2.50;;;9.00;95.10;;;;;;5073797;28;20031;-60
2021/07/25 11:32:02;;;;;;;4.50;2.80;;;9.00;94.80;;;;;;5073740;28;20024;-59
2021/07/25 11:34:35;;;;;;;4.25;2.90;;;9.20;94.30;;;;;;5073546;28;20013;-59
2021/07/25 11:37:10;;;;;;;2.85;2.58;;;9.30;94.20;;;;;;5073343;28;20032;-60
2021/07/25 11:39:37;;;;;;;4.75;2.88;;;9.40;94.20;;;;;;5073448;28;20052;-60
2021/07/25 11:42:08;;;;;;;3.15;2.95;;;9.40;94.30;;;;;;5073663;28;20027;-58
2021/07/25 11:44:39;;;;;;;4.10;2.80;;;9.40;94.20;;;;;;5073597;28;20028;-58
2021/07/25 11:47:07;;;;;;;4.90;2.80;;;9.40;94.30;;;;;;5073342;28;20473;-59
2021/07/25 11:49:40;;;;;;;3.13;2.80;;;9.50;94.10;;;;;;5073551;28;20044;-59
2021/07/25 11:52:12;;;;;;;2.85;2.28;;;9.50;94.50;;;;;;5073356;28;20078;-57
2021/07/25 11:54:43;;;;;;;3.90;2.28;;;9.50;94.40;;;;;;5073285;28;20175;-61
2021/07/25 11:57:14;;;;;;;4.70;2.63;;;9.50;94.60;;;;;;5073071;28;20067;-60
2021/07/25 11:59:41;;;;;;;;;;;9.50;94.80;;;;;;5073717;28;20028;-61
2021/07/25 12:02:09;;;;;;;3.95;2.80;;;9.50;95.50;;;;;;5071888;28;20319;-60
2021/07/25 12:04:44;;;;;;;4.25;2.85;;;9.50;95.40;;;;;;5073046;28;20108;-60
2021/07/25 12:07:15;;;;;;;2.45;2.25;;;9.50;94.90;;;;;;5073081;28;20484;-60
2021/07/25 12:09:54;;;;;;;3.33;2.38;;;9.60;94.80;;;;;;5073105;28;20021;-58
2021/07/25 12:12:24;;;;;;;3.53;2.13;;;9.60;94.80;;;;;;5073358;28;20029;-60
2021/07/25 12:14:53;;;;;;;3.10;2.80;;;9.60;94.70;;;;;;5073079;28;20048;-60
2021/07/25 12:17:52;;;;;;;10.35;2.70;;;9.60;94.80;;;;;;5072759;28;20262;-57
2021/07/25 12:20:33;;;;;;;2.53;2.22;;;9.60;95.10;;;;;;5072877;28;20032;-58
2021/07/25 12:23:10;;;;;;;2.72;2.50;;;9.60;94.50;;;;;;5072887;28;20035;-59
2021/07/25 12:25:39;;;;;;;4.13;2.53;;;9.60;95.00;;;;;;5072693;28;20040;-59
2021/07/25 12:28:09;;;;;;;4.03;2.55;;;9.50;95.10;;;;;;5072825;28;20024;-60
2021/07/25 12:30:47;;;;;;;2.78;1.80;;;9.60;94.90;;;;;;5072911;28;20420;-59
2021/07/25 12:33:22;;;;;;;5.90;2.72;;;9.60;95.10;;;;;;5072935;28;20086;-62
2021/07/25 12:35:49;;;;;;;2.80;2.40;;;9.40;95.00;;;;;;5072597;28;20021;-59
2021/07/25 12:38:20;;;;;;;4.28;2.33;;;9.50;95.30;;;;;;5072677;28;20074;-59
2021/07/25 12:40:54;;;;;;;3.40;2.35;;;9.30;95.10;;;;;;5072966;28;20099;-59
2021/07/25 12:43:23;;;;;;;4.70;2.22;;;9.40;95.30;;;;;;5072778;28;20050;-59
2021/07/25 12:45:52;;;;;;;3.58;2.08;;;9.30;95.50;;;;;;5072470;28;20029;-58
2021/07/25 12:48:26;;;;;;;4.55;2.17;;;9.40;95.70;;;;;;5072460;28;20038;-58
2021/07/25 12:53:50;;;;;;;3.60;2.35;;;9.30;95.60;;;;;;5072531;28;20489;-59
2021/07/25 12:56:22;;;;;;;6.15;2.55;;;9.40;95.70;;;;;;5072481;28;20048;-62
2021/07/25 12:58:53;;;;;;;3.67;2.35;;;9.40;95.40;;;;;;5072340;28;20048;-61
2021/07/25 13:03:59;;;;;;;3.60;2.10;;;9.70;96.10;;;;;;5072373;28;20029;-58
2021/07/25 13:06:39;;;;;;;4.60;2.10;;;9.80;94.80;;;;;;5071018;28;20086;-58
2021/07/25 13:09:20;;;;;;;2.92;2.03;;;9.80;95.30;;;;;;5072301;28;20032;-61
2021/07/25 13:11:54;;;;;;;;;;;9.80;94.70;;;;;;5073364;28;20521;-60
2021/07/25 13:14:26;;;;;;;4.78;2.00;;;9.70;95.10;;;;;;5072410;28;20284;-60